sensor_id;sensor_type;location;lat;lon;timestamp;P1;durP1;ratioP1;P2;durP2;ratioP2
33094;SDS011;19459;53.044;8.910;2023-02-13T00:02:16;46.95;;;20.80;;
33094;SDS011;19459;53.044;8.910;2023-02-13T00:04:42;47.17;;;21.83;;
33094;SDS011;19459;53.044;8.910;2023-02-13T00:07:08;40.88;;;20.63;;
33094;SDS011;19459;53.044;8.910;2023-02-13T00:09:37;41.95;;;20.15;;
33094;SDS011;19459;53.044;8.910;2023-02-13T00:12:05;41.53;;;20.85;;
33094;SDS011;19459;53.044;8.910;2023-02-13T00:14:36;46.88;;;21.00;;
33094;SDS011;19459;53.044;8.910;2023-02-13T00:17:03;44.50;;;21.45;;
33094;SDS011;19459;53.044;8.910;2023-02-13T00:19:29;40.58;;;19.25;;
33094;SDS011;19459;53.044;8.910;2023-02-13T00:21:55;43.90;;;21.00;;
33094;SDS011;19459;53.044;8.910;2023-02-13T00:24:21;41.03;;;21.08;;
33094;SDS011;19459;53.044;8.910;2023-02-13T00:26:47;39.42;;;19.17;;
33094;SDS011;19459;53.044;8.910;2023-02-13T00:29:13;46.97;;;20.17;;
33094;SDS011;19459;53.044;8.910;2023-02-13T00:31:38;40.92;;;18.73;;
33094;SDS011;19459;53.044;8.910;2023-02-13T00:34:04;43.78;;;21.83;;
33094;SDS011;19459;53.044;8.910;2023-02-13T00:36:30;44.00;;;20.77;;
33094;SDS011;19459;53.044;8.910;2023-02-13T00:38:56;49.03;;;20.67;;
33094;SDS011;19459;53.044;8.910;2023-02-13T00:41:22;40.13;;;20.38;;
33094;SDS011;19459;53.044;8.910;2023-02-13T00:43:48;36.83;;;19.35;;
33094;SDS011;19459;53.044;8.910;2023-02-13T00:46:15;39.13;;;20.95;;
33094;SDS011;19459;53.044;8.910;2023-02-13T00:48:41;40.70;;;20.13;;
33094;SDS011;19459;53.044;8.910;2023-02-13T00:51:08;39.00;;;18.67;;
33094;SDS011;19459;53.044;8.910;2023-02-13T00:53:34;37.83;;;19.50;;
33094;SDS011;19459;53.044;8.910;2023-02-13T00:56:01;36.63;;;19.85;;
33094;SDS011;19459;53.044;8.910;2023-02-13T00:58:28;41.15;;;18.02;;
33094;SDS011;19459;53.044;8.910;2023-02-13T01:00:53;46.20;;;19.17;;
33094;SDS011;19459;53.044;8.910;2023-02-13T01:03:20;45.70;;;20.25;;
33094;SDS011;19459;53.044;8.910;2023-02-13T01:05:46;42.67;;;20.10;;
33094;SDS011;19459;53.044;8.910;2023-02-13T01:08:14;40.13;;;19.13;;
33094;SDS011;19459;53.044;8.910;2023-02-13T01:10:41;38.45;;;18.05;;
33094;SDS011;19459;53.044;8.910;2023-02-13T01:13:09;42.15;;;19.45;;
33094;SDS011;19459;53.044;8.910;2023-02-13T01:15:37;43.95;;;18.15;;
33094;SDS011;19459;53.044;8.910;2023-02-13T01:18:03;38.85;;;19.23;;
33094;SDS011;19459;53.044;8.910;2023-02-13T01:20:29;39.58;;;19.98;;
33094;SDS011;19459;53.044;8.910;2023-02-13T01:22:55;46.95;;;20.75;;
33094;SDS011;19459;53.044;8.910;2023-02-13T01:25:22;52.53;;;21.42;;
33094;SDS011;19459;53.044;8.910;2023-02-13T01:27:48;42.53;;;20.52;;
33094;SDS011;19459;53.044;8.910;2023-02-13T01:30:15;40.10;;;19.08;;
33094;SDS011;19459;53.044;8.910;2023-02-13T01:32:42;43.92;;;19.70;;
33094;SDS011;19459;53.044;8.910;2023-02-13T01:35:10;41.85;;;19.83;;
33094;SDS011;19459;53.044;8.910;2023-02-13T01:37:38;38.38;;;17.88;;
33094;SDS011;19459;53.044;8.910;2023-02-13T01:40:05;38.75;;;18.02;;
33094;SDS011;19459;53.044;8.910;2023-02-13T01:42:35;45.70;;;20.23;;
33094;SDS011;19459;53.044;8.910;2023-02-13T01:45:02;39.25;;;18.67;;
33094;SDS011;19459;53.044;8.910;2023-02-13T01:47:55;41.28;;;18.40;;
33094;SDS011;19459;53.044;8.910;2023-02-13T01:53:32;48.20;;;20.05;;
33094;SDS011;19459;53.044;8.910;2023-02-13T01:56:05;43.88;;;20.90;;
33094;SDS011;19459;53.044;8.910;2023-02-13T01:58:43;49.47;;;21.33;;
33094;SDS011;19459;53.044;8.910;2023-02-13T02:01:13;49.40;;;21.67;;
33094;SDS011;19459;53.044;8.910;2023-02-13T02:03:44;51.22;;;21.65;;
33094;SDS011;19459;53.044;8.910;2023-02-13T02:06:19;58.38;;;24.58;;
33094;SDS011;19459;53.044;8.910;2023-02-13T02:09:01;47.72;;;23.15;;
33094;SDS011;19459;53.044;8.910;2023-02-13T02:11:34;61.08;;;24.88;;
33094;SDS011;19459;53.044;8.910;2023-02-13T02:14:17;60.08;;;25.83;;
33094;SDS011;19459;53.044;8.910;2023-02-13T02:16:44;61.75;;;25.17;;
33094;SDS011;19459;53.044;8.910;2023-02-13T02:19:13;56.35;;;24.75;;
33094;SDS011;19459;53.044;8.910;2023-02-13T02:36:51;74.70;;;29.02;;
33094;SDS011;19459;53.044;8.910;2023-02-13T02:39:44;69.95;;;27.27;;
33094;SDS011;19459;53.044;8.910;2023-02-13T02:54:44;74.30;;;28.48;;
33094;SDS011;19459;53.044;8.910;2023-02-13T02:57:33;73.72;;;30.08;;
33094;SDS011;19459;53.044;8.910;2023-02-13T03:00:24;92.70;;;34.28;;
33094;SDS011;19459;53.044;8.910;2023-02-13T03:03:12;98.05;;;35.88;;
33094;SDS011;19459;53.044;8.910;2023-02-13T03:06:02;91.65;;;34.50;;
33094;SDS011;19459;53.044;8.910;2023-02-13T03:08:39;89.18;;;33.70;;
33094;SDS011;19459;53.044;8.910;2023-02-13T03:11:28;93.68;;;33.03;;
33094;SDS011;19459;53.044;8.910;2023-02-13T03:14:19;94.28;;;32.67;;
33094;SDS011;19459;53.044;8.910;2023-02-13T03:16:47;78.95;;;31.35;;
33094;SDS011;19459;53.044;8.910;2023-02-13T03:22:51;74.30;;;31.00;;
33094;SDS011;19459;53.044;8.910;2023-02-13T03:28:27;99.57;;;37.17;;
33094;SDS011;19459;53.044;8.910;2023-02-13T03:31:36;98.45;;;36.17;;
33094;SDS011;19459;53.044;8.910;2023-02-13T03:34:34;109.45;;;36.97;;
33094;SDS011;19459;53.044;8.910;2023-02-13T03:37:27;104.70;;;35.20;;
33094;SDS011;19459;53.044;8.910;2023-02-13T03:43:24;103.80;;;39.33;;
33094;SDS011;19459;53.044;8.910;2023-02-13T03:45:54;111.05;;;39.70;;
33094;SDS011;19459;53.044;8.910;2023-02-13T03:48:29;107.78;;;36.63;;
33094;SDS011;19459;53.044;8.910;2023-02-13T03:51:18;119.13;;;40.42;;
33094;SDS011;19459;53.044;8.910;2023-02-13T03:54:27;106.05;;;37.45;;
33094;SDS011;19459;53.044;8.910;2023-02-13T03:57:40;116.55;;;37.75;;
33094;SDS011;19459;53.044;8.910;2023-02-13T04:00:27;105.78;;;36.70;;
33094;SDS011;19459;53.044;8.910;2023-02-13T04:06:01;99.82;;;37.17;;
33094;SDS011;19459;53.044;8.910;2023-02-13T04:08:32;99.13;;;37.03;;
33094;SDS011;19459;53.044;8.910;2023-02-13T04:11:03;102.10;;;37.13;;
33094;SDS011;19459;53.044;8.910;2023-02-13T04:16:17;95.32;;;37.25;;
33094;SDS011;19459;53.044;8.910;2023-02-13T04:21:26;103.78;;;36.47;;
33094;SDS011;19459;53.044;8.910;2023-02-13T04:23:52;87.03;;;36.10;;
33094;SDS011;19459;53.044;8.910;2023-02-13T04:26:21;94.60;;;34.65;;
33094;SDS011;19459;53.044;8.910;2023-02-13T04:28:48;106.18;;;38.33;;
33094;SDS011;19459;53.044;8.910;2023-02-13T04:31:14;82.60;;;33.60;;
33094;SDS011;19459;53.044;8.910;2023-02-13T04:33:40;102.00;;;36.75;;
33094;SDS011;19459;53.044;8.910;2023-02-13T04:36:05;91.45;;;36.65;;
33094;SDS011;19459;53.044;8.910;2023-02-13T04:38:32;99.43;;;36.75;;
33094;SDS011;19459;53.044;8.910;2023-02-13T04:40:57;98.53;;;35.72;;
33094;SDS011;19459;53.044;8.910;2023-02-13T04:43:23;117.40;;;37.53;;
33094;SDS011;19459;53.044;8.910;2023-02-13T04:45:50;94.05;;;36.50;;
33094;SDS011;19459;53.044;8.910;2023-02-13T04:48:16;110.70;;;36.95;;
33094;SDS011;19459;53.044;8.910;2023-02-13T04:50:42;104.03;;;37.97;;
33094;SDS011;19459;53.044;8.910;2023-02-13T04:53:08;97.53;;;37.83;;
33094;SDS011;19459;53.044;8.910;2023-02-13T04:55:34;86.97;;;35.00;;
33094;SDS011;19459;53.044;8.910;2023-02-13T04:57:59;94.43;;;37.13;;
33094;SDS011;19459;53.044;8.910;2023-02-13T05:00:26;98.53;;;36.58;;
33094;SDS011;19459;53.044;8.910;2023-02-13T05:02:52;93.20;;;35.53;;
33094;SDS011;19459;53.044;8.910;2023-02-13T05:05:18;100.13;;;38.22;;
33094;SDS011;19459;53.044;8.910;2023-02-13T05:07:45;106.72;;;37.53;;
33094;SDS011;19459;53.044;8.910;2023-02-13T05:10:11;98.97;;;36.42;;
33094;SDS011;19459;53.044;8.910;2023-02-13T05:12:37;111.15;;;40.17;;
33094;SDS011;19459;53.044;8.910;2023-02-13T05:15:04;103.72;;;36.65;;
33094;SDS011;19459;53.044;8.910;2023-02-13T05:17:30;117.88;;;40.35;;
33094;SDS011;19459;53.044;8.910;2023-02-13T05:19:56;117.90;;;38.85;;
33094;SDS011;19459;53.044;8.910;2023-02-13T05:22:23;115.50;;;38.75;;
33094;SDS011;19459;53.044;8.910;2023-02-13T05:25:07;123.75;;;40.10;;
33094;SDS011;19459;53.044;8.910;2023-02-13T05:27:33;111.05;;;37.72;;
33094;SDS011;19459;53.044;8.910;2023-02-13T05:29:59;114.85;;;40.97;;
33094;SDS011;19459;53.044;8.910;2023-02-13T05:32:25;111.95;;;38.40;;
33094;SDS011;19459;53.044;8.910;2023-02-13T05:34:50;110.32;;;42.72;;
33094;SDS011;19459;53.044;8.910;2023-02-13T05:37:16;122.35;;;40.97;;
33094;SDS011;19459;53.044;8.910;2023-02-13T05:39:42;108.25;;;40.00;;
33094;SDS011;19459;53.044;8.910;2023-02-13T05:42:08;102.35;;;38.80;;
33094;SDS011;19459;53.044;8.910;2023-02-13T05:44:34;121.65;;;42.53;;
33094;SDS011;19459;53.044;8.910;2023-02-13T05:47:00;110.63;;;39.80;;
33094;SDS011;19459;53.044;8.910;2023-02-13T05:49:26;121.00;;;39.38;;
33094;SDS011;19459;53.044;8.910;2023-02-13T05:51:52;118.97;;;37.75;;
33094;SDS011;19459;53.044;8.910;2023-02-13T05:54:17;104.03;;;38.88;;
33094;SDS011;19459;53.044;8.910;2023-02-13T05:56:43;103.30;;;39.47;;
33094;SDS011;19459;53.044;8.910;2023-02-13T05:59:10;111.45;;;39.50;;
33094;SDS011;19459;53.044;8.910;2023-02-13T06:01:36;114.18;;;38.80;;
33094;SDS011;19459;53.044;8.910;2023-02-13T06:04:01;113.63;;;38.58;;
33094;SDS011;19459;53.044;8.910;2023-02-13T06:06:27;111.80;;;36.65;;
33094;SDS011;19459;53.044;8.910;2023-02-13T06:08:53;105.43;;;38.80;;
33094;SDS011;19459;53.044;8.910;2023-02-13T06:11:19;99.45;;;35.95;;
33094;SDS011;19459;53.044;8.910;2023-02-13T06:13:45;103.05;;;36.90;;
33094;SDS011;19459;53.044;8.910;2023-02-13T06:16:11;104.25;;;37.70;;
33094;SDS011;19459;53.044;8.910;2023-02-13T06:18:37;139.05;;;39.38;;
33094;SDS011;19459;53.044;8.910;2023-02-13T06:21:04;103.70;;;37.45;;
33094;SDS011;19459;53.044;8.910;2023-02-13T06:23:31;95.05;;;36.35;;
33094;SDS011;19459;53.044;8.910;2023-02-13T06:26:00;98.43;;;37.85;;
33094;SDS011;19459;53.044;8.910;2023-02-13T06:28:31;93.47;;;37.10;;
33094;SDS011;19459;53.044;8.910;2023-02-13T06:30:58;90.43;;;35.80;;
33094;SDS011;19459;53.044;8.910;2023-02-13T06:33:24;110.40;;;40.90;;
33094;SDS011;19459;53.044;8.910;2023-02-13T06:35:49;98.53;;;38.88;;
33094;SDS011;19459;53.044;8.910;2023-02-13T06:38:15;103.97;;;41.70;;
33094;SDS011;19459;53.044;8.910;2023-02-13T06:40:45;109.75;;;40.63;;
33094;SDS011;19459;53.044;8.910;2023-02-13T06:43:12;98.97;;;37.65;;
33094;SDS011;19459;53.044;8.910;2023-02-13T06:45:38;94.70;;;38.05;;
33094;SDS011;19459;53.044;8.910;2023-02-13T06:48:05;91.75;;;37.80;;
33094;SDS011;19459;53.044;8.910;2023-02-13T06:50:31;99.20;;;36.22;;
33094;SDS011;19459;53.044;8.910;2023-02-13T06:52:58;103.50;;;35.78;;
33094;SDS011;19459;53.044;8.910;2023-02-13T06:55:24;101.45;;;36.47;;
33094;SDS011;19459;53.044;8.910;2023-02-13T06:57:51;88.30;;;33.28;;
33094;SDS011;19459;53.044;8.910;2023-02-13T07:00:17;90.28;;;35.65;;
33094;SDS011;19459;53.044;8.910;2023-02-13T07:02:44;92.15;;;34.92;;
33094;SDS011;19459;53.044;8.910;2023-02-13T07:05:11;85.78;;;34.53;;
33094;SDS011;19459;53.044;8.910;2023-02-13T07:07:38;85.93;;;33.65;;
33094;SDS011;19459;53.044;8.910;2023-02-13T07:10:06;84.38;;;33.10;;
33094;SDS011;19459;53.044;8.910;2023-02-13T07:12:35;80.43;;;33.63;;
33094;SDS011;19459;53.044;8.910;2023-02-13T07:15:02;107.53;;;36.60;;
33094;SDS011;19459;53.044;8.910;2023-02-13T07:17:29;89.55;;;35.97;;
33094;SDS011;19459;53.044;8.910;2023-02-13T07:19:55;102.32;;;37.60;;
33094;SDS011;19459;53.044;8.910;2023-02-13T07:22:21;94.38;;;36.22;;
33094;SDS011;19459;53.044;8.910;2023-02-13T07:24:47;88.22;;;35.45;;
33094;SDS011;19459;53.044;8.910;2023-02-13T07:27:13;87.05;;;34.97;;
33094;SDS011;19459;53.044;8.910;2023-02-13T07:29:39;80.22;;;33.85;;
33094;SDS011;19459;53.044;8.910;2023-02-13T07:32:04;78.68;;;32.13;;
33094;SDS011;19459;53.044;8.910;2023-02-13T07:34:31;83.18;;;32.20;;
33094;SDS011;19459;53.044;8.910;2023-02-13T07:36:57;83.30;;;33.60;;
33094;SDS011;19459;53.044;8.910;2023-02-13T07:39:23;82.80;;;32.47;;
33094;SDS011;19459;53.044;8.910;2023-02-13T07:41:49;83.45;;;34.45;;
33094;SDS011;19459;53.044;8.910;2023-02-13T07:44:16;79.78;;;33.97;;
33094;SDS011;19459;53.044;8.910;2023-02-13T07:46:42;80.18;;;33.95;;
33094;SDS011;19459;53.044;8.910;2023-02-13T07:49:07;79.55;;;30.92;;
33094;SDS011;19459;53.044;8.910;2023-02-13T07:51:33;79.38;;;32.30;;
33094;SDS011;19459;53.044;8.910;2023-02-13T07:54:00;106.10;;;36.72;;
33094;SDS011;19459;53.044;8.910;2023-02-13T07:56:26;98.35;;;36.83;;
33094;SDS011;19459;53.044;8.910;2023-02-13T07:58:52;95.93;;;37.10;;
33094;SDS011;19459;53.044;8.910;2023-02-13T08:01:18;103.18;;;38.50;;
33094;SDS011;19459;53.044;8.910;2023-02-13T08:03:46;89.15;;;35.85;;
33094;SDS011;19459;53.044;8.910;2023-02-13T08:06:15;103.25;;;40.65;;
33094;SDS011;19459;53.044;8.910;2023-02-13T08:08:41;94.70;;;38.17;;
33094;SDS011;19459;53.044;8.910;2023-02-13T08:11:11;100.25;;;37.25;;
33094;SDS011;19459;53.044;8.910;2023-02-13T08:14:07;97.82;;;37.33;;
33094;SDS011;19459;53.044;8.910;2023-02-13T08:16:33;97.22;;;37.17;;
33094;SDS011;19459;53.044;8.910;2023-02-13T08:18:59;100.25;;;37.58;;
33094;SDS011;19459;53.044;8.910;2023-02-13T08:21:24;103.55;;;38.38;;
33094;SDS011;19459;53.044;8.910;2023-02-13T08:23:50;105.80;;;37.80;;
33094;SDS011;19459;53.044;8.910;2023-02-13T08:26:16;110.55;;;41.15;;
33094;SDS011;19459;53.044;8.910;2023-02-13T08:28:42;100.40;;;39.00;;
33094;SDS011;19459;53.044;8.910;2023-02-13T08:31:09;102.43;;;38.63;;
33094;SDS011;19459;53.044;8.910;2023-02-13T08:33:36;108.35;;;38.58;;
33094;SDS011;19459;53.044;8.910;2023-02-13T08:36:02;101.28;;;36.60;;
33094;SDS011;19459;53.044;8.910;2023-02-13T08:38:28;99.78;;;36.40;;
33094;SDS011;19459;53.044;8.910;2023-02-13T08:40:57;103.28;;;39.95;;
33094;SDS011;19459;53.044;8.910;2023-02-13T08:43:23;107.10;;;38.97;;
33094;SDS011;19459;53.044;8.910;2023-02-13T08:45:49;97.72;;;37.10;;
33094;SDS011;19459;53.044;8.910;2023-02-13T08:48:14;105.00;;;40.78;;
33094;SDS011;19459;53.044;8.910;2023-02-13T08:50:40;112.82;;;40.42;;
33094;SDS011;19459;53.044;8.910;2023-02-13T08:53:06;102.00;;;39.22;;
33094;SDS011;19459;53.044;8.910;2023-02-13T08:55:32;104.18;;;40.60;;
33094;SDS011;19459;53.044;8.910;2023-02-13T08:57:59;102.82;;;37.38;;
33094;SDS011;19459;53.044;8.910;2023-02-13T09:00:28;91.65;;;37.65;;
33094;SDS011;19459;53.044;8.910;2023-02-13T09:02:54;100.85;;;39.58;;
33094;SDS011;19459;53.044;8.910;2023-02-13T09:05:26;100.32;;;39.50;;
33094;SDS011;19459;53.044;8.910;2023-02-13T09:07:53;111.90;;;41.25;;
33094;SDS011;19459;53.044;8.910;2023-02-13T09:10:19;109.90;;;41.05;;
33094;SDS011;19459;53.044;8.910;2023-02-13T09:12:50;110.53;;;39.25;;
33094;SDS011;19459;53.044;8.910;2023-02-13T09:15:17;98.18;;;36.42;;
33094;SDS011;19459;53.044;8.910;2023-02-13T09:17:43;102.40;;;38.33;;
33094;SDS011;19459;53.044;8.910;2023-02-13T09:20:09;108.00;;;41.50;;
33094;SDS011;19459;53.044;8.910;2023-02-13T09:22:37;96.30;;;37.35;;
33094;SDS011;19459;53.044;8.910;2023-02-13T09:25:04;102.95;;;38.67;;
33094;SDS011;19459;53.044;8.910;2023-02-13T09:27:30;106.95;;;41.75;;
33094;SDS011;19459;53.044;8.910;2023-02-13T09:29:57;101.28;;;39.53;;
33094;SDS011;19459;53.044;8.910;2023-02-13T09:32:24;102.47;;;40.33;;
33094;SDS011;19459;53.044;8.910;2023-02-13T09:34:50;105.57;;;38.80;;
33094;SDS011;19459;53.044;8.910;2023-02-13T09:37:16;107.55;;;40.58;;
33094;SDS011;19459;53.044;8.910;2023-02-13T09:39:41;96.95;;;38.83;;
33094;SDS011;19459;53.044;8.910;2023-02-13T09:42:18;114.03;;;43.10;;
33094;SDS011;19459;53.044;8.910;2023-02-13T09:44:54;118.43;;;44.90;;
33094;SDS011;19459;53.044;8.910;2023-02-13T09:47:33;113.88;;;43.78;;
33094;SDS011;19459;53.044;8.910;2023-02-13T09:50:12;93.43;;;40.08;;
33094;SDS011;19459;53.044;8.910;2023-02-13T09:52:49;111.15;;;44.00;;
33094;SDS011;19459;53.044;8.910;2023-02-13T09:55:19;105.45;;;41.53;;
33094;SDS011;19459;53.044;8.910;2023-02-13T09:58:02;105.93;;;41.33;;
33094;SDS011;19459;53.044;8.910;2023-02-13T10:00:51;100.00;;;39.53;;
33094;SDS011;19459;53.044;8.910;2023-02-13T10:03:28;100.13;;;41.90;;
33094;SDS011;19459;53.044;8.910;2023-02-13T10:08:49;105.65;;;42.33;;
33094;SDS011;19459;53.044;8.910;2023-02-13T10:14:26;95.13;;;41.05;;
33094;SDS011;19459;53.044;8.910;2023-02-13T10:17:20;101.88;;;41.83;;
33094;SDS011;19459;53.044;8.910;2023-02-13T10:19:55;100.60;;;41.20;;
33094;SDS011;19459;53.044;8.910;2023-02-13T10:22:51;99.22;;;41.88;;
33094;SDS011;19459;53.044;8.910;2023-02-13T10:25:27;96.72;;;40.80;;
33094;SDS011;19459;53.044;8.910;2023-02-13T10:28:11;99.65;;;43.28;;
33094;SDS011;19459;53.044;8.910;2023-02-13T10:38:37;91.43;;;39.70;;
33094;SDS011;19459;53.044;8.910;2023-02-13T10:44:48;92.43;;;38.28;;
33094;SDS011;19459;53.044;8.910;2023-02-13T10:51:02;94.00;;;38.50;;
33094;SDS011;19459;53.044;8.910;2023-02-13T10:57:13;82.03;;;36.53;;
33094;SDS011;19459;53.044;8.910;2023-02-13T11:00:06;84.90;;;36.60;;
33094;SDS011;19459;53.044;8.910;2023-02-13T11:02:42;83.38;;;35.53;;
33094;SDS011;19459;53.044;8.910;2023-02-13T11:05:16;80.72;;;37.17;;
33094;SDS011;19459;53.044;8.910;2023-02-13T11:07:48;83.22;;;34.35;;
33094;SDS011;19459;53.044;8.910;2023-02-13T11:10:18;79.60;;;33.75;;
33094;SDS011;19459;53.044;8.910;2023-02-13T11:12:49;79.80;;;35.75;;
33094;SDS011;19459;53.044;8.910;2023-02-13T11:15:20;74.32;;;33.97;;
33094;SDS011;19459;53.044;8.910;2023-02-13T11:18:03;79.22;;;33.40;;
33094;SDS011;19459;53.044;8.910;2023-02-13T11:20:46;71.97;;;30.85;;
33094;SDS011;19459;53.044;8.910;2023-02-13T11:23:32;71.05;;;32.47;;
33094;SDS011;19459;53.044;8.910;2023-02-13T11:26:03;79.00;;;33.55;;
33094;SDS011;19459;53.044;8.910;2023-02-13T11:31:13;68.63;;;30.42;;
33094;SDS011;19459;53.044;8.910;2023-02-13T11:33:58;84.22;;;35.85;;
33094;SDS011;19459;53.044;8.910;2023-02-13T11:36:41;75.55;;;33.28;;
33094;SDS011;19459;53.044;8.910;2023-02-13T11:39:17;64.60;;;29.80;;
33094;SDS011;19459;53.044;8.910;2023-02-13T11:41:47;73.28;;;34.72;;
33094;SDS011;19459;53.044;8.910;2023-02-13T11:44:27;70.35;;;32.58;;
33094;SDS011;19459;53.044;8.910;2023-02-13T11:46:56;74.00;;;30.95;;
33094;SDS011;19459;53.044;8.910;2023-02-13T11:49:25;69.60;;;31.27;;
33094;SDS011;19459;53.044;8.910;2023-02-13T11:51:57;74.03;;;31.92;;
33094;SDS011;19459;53.044;8.910;2023-02-13T11:54:33;74.57;;;30.63;;
33094;SDS011;19459;53.044;8.910;2023-02-13T11:57:27;68.45;;;32.38;;
33094;SDS011;19459;53.044;8.910;2023-02-13T11:59:57;70.07;;;31.48;;
33094;SDS011;19459;53.044;8.910;2023-02-13T12:02:42;64.57;;;31.52;;
33094;SDS011;19459;53.044;8.910;2023-02-13T12:07:47;70.88;;;33.95;;
33094;SDS011;19459;53.044;8.910;2023-02-13T12:15:38;69.68;;;33.80;;
33094;SDS011;19459;53.044;8.910;2023-02-13T12:18:16;80.07;;;34.30;;
33094;SDS011;19459;53.044;8.910;2023-02-13T12:26:34;67.53;;;31.08;;
33094;SDS011;19459;53.044;8.910;2023-02-13T12:34:24;61.38;;;30.98;;
33094;SDS011;19459;53.044;8.910;2023-02-13T12:40:55;63.88;;;31.05;;
33094;SDS011;19459;53.044;8.910;2023-02-13T12:58:32;65.95;;;33.40;;
33094;SDS011;19459;53.044;8.910;2023-02-13T13:11:08;82.18;;;40.35;;
33094;SDS011;19459;53.044;8.910;2023-02-13T13:13:19;83.20;;;41.40;;
33094;SDS011;19459;53.044;8.910;2023-02-13T13:16:00;79.75;;;38.78;;
33094;SDS011;19459;53.044;8.910;2023-02-13T13:27:44;68.50;;;32.58;;
33094;SDS011;19459;53.044;8.910;2023-02-13T13:30:24;59.75;;;28.90;;
33094;SDS011;19459;53.044;8.910;2023-02-13T13:43:05;62.63;;;30.38;;
33094;SDS011;19459;53.044;8.910;2023-02-13T13:45:41;56.22;;;29.00;;
33094;SDS011;19459;53.044;8.910;2023-02-13T13:51:25;58.50;;;31.13;;
33094;SDS011;19459;53.044;8.910;2023-02-13T13:57:04;55.55;;;30.30;;
33094;SDS011;19459;53.044;8.910;2023-02-13T14:07:45;55.67;;;28.58;;
33094;SDS011;19459;53.044;8.910;2023-02-13T14:18:05;52.05;;;28.58;;
33094;SDS011;19459;53.044;8.910;2023-02-13T14:23:43;50.72;;;26.48;;
33094;SDS011;19459;53.044;8.910;2023-02-13T14:28:53;53.13;;;27.67;;
33094;SDS011;19459;53.044;8.910;2023-02-13T14:31:30;51.65;;;26.77;;
33094;SDS011;19459;53.044;8.910;2023-02-13T14:36:39;49.30;;;26.00;;
33094;SDS011;19459;53.044;8.910;2023-02-13T14:41:58;46.90;;;25.42;;
33094;SDS011;19459;53.044;8.910;2023-02-13T14:50:04;57.25;;;26.27;;
33094;SDS011;19459;53.044;8.910;2023-02-13T14:52:35;52.80;;;27.95;;
33094;SDS011;19459;53.044;8.910;2023-02-13T14:55:11;51.72;;;26.63;;
33094;SDS011;19459;53.044;8.910;2023-02-13T14:57:49;51.35;;;26.98;;
33094;SDS011;19459;53.044;8.910;2023-02-13T15:00:43;46.55;;;26.33;;
33094;SDS011;19459;53.044;8.910;2023-02-13T15:03:35;50.92;;;27.38;;
33094;SDS011;19459;53.044;8.910;2023-02-13T15:06:18;50.15;;;25.67;;
33094;SDS011;19459;53.044;8.910;2023-02-13T15:08:51;50.15;;;26.30;;
33094;SDS011;19459;53.044;8.910;2023-02-13T15:11:41;54.53;;;28.05;;
33094;SDS011;19459;53.044;8.910;2023-02-13T15:14:15;53.25;;;27.27;;
33094;SDS011;19459;53.044;8.910;2023-02-13T15:17:03;58.13;;;28.52;;
33094;SDS011;19459;53.044;8.910;2023-02-13T15:19:54;55.65;;;29.33;;
33094;SDS011;19459;53.044;8.910;2023-02-13T15:22:40;52.40;;;27.90;;
33094;SDS011;19459;53.044;8.910;2023-02-13T15:28:04;57.83;;;27.80;;
33094;SDS011;19459;53.044;8.910;2023-02-13T15:30:34;54.25;;;27.88;;
33094;SDS011;19459;53.044;8.910;2023-02-13T15:33:02;59.05;;;27.23;;
33094;SDS011;19459;53.044;8.910;2023-02-13T15:36:00;59.83;;;29.63;;
33094;SDS011;19459;53.044;8.910;2023-02-13T15:38:30;58.65;;;28.77;;
33094;SDS011;19459;53.044;8.910;2023-02-13T15:41:10;55.47;;;27.90;;
33094;SDS011;19459;53.044;8.910;2023-02-13T15:43:43;57.90;;;30.00;;
33094;SDS011;19459;53.044;8.910;2023-02-13T15:48:58;59.05;;;31.45;;
33094;SDS011;19459;53.044;8.910;2023-02-13T15:51:40;62.30;;;31.60;;
33094;SDS011;19459;53.044;8.910;2023-02-13T15:54:18;61.38;;;31.15;;
33094;SDS011;19459;53.044;8.910;2023-02-13T15:56:50;72.28;;;35.08;;
33094;SDS011;19459;53.044;8.910;2023-02-13T15:59:19;62.33;;;31.98;;
33094;SDS011;19459;53.044;8.910;2023-02-13T16:01:45;66.03;;;31.92;;
33094;SDS011;19459;53.044;8.910;2023-02-13T16:04:12;65.10;;;30.65;;
33094;SDS011;19459;53.044;8.910;2023-02-13T16:06:41;63.17;;;32.50;;
33094;SDS011;19459;53.044;8.910;2023-02-13T16:09:21;61.75;;;29.63;;
33094;SDS011;19459;53.044;8.910;2023-02-13T16:14:53;62.15;;;32.08;;
33094;SDS011;19459;53.044;8.910;2023-02-13T16:17:36;66.38;;;32.47;;
33094;SDS011;19459;53.044;8.910;2023-02-13T16:20:15;61.58;;;32.38;;
33094;SDS011;19459;53.044;8.910;2023-02-13T16:22:46;72.55;;;34.20;;
33094;SDS011;19459;53.044;8.910;2023-02-13T16:28:13;71.90;;;39.00;;
33094;SDS011;19459;53.044;8.910;2023-02-13T16:30:50;77.18;;;36.60;;
33094;SDS011;19459;53.044;8.910;2023-02-13T16:36:36;72.97;;;34.85;;
33094;SDS011;19459;53.044;8.910;2023-02-13T16:38:52;72.35;;;34.25;;
33094;SDS011;19459;53.044;8.910;2023-02-13T16:56:43;68.88;;;34.25;;
33094;SDS011;19459;53.044;8.910;2023-02-13T17:10:05;71.20;;;35.33;;
33094;SDS011;19459;53.044;8.910;2023-02-13T17:12:43;70.95;;;34.65;;
33094;SDS011;19459;53.044;8.910;2023-02-13T17:15:10;76.78;;;36.78;;
33094;SDS011;19459;53.044;8.910;2023-02-13T17:17:39;72.10;;;34.60;;
33094;SDS011;19459;53.044;8.910;2023-02-13T17:20:20;68.40;;;33.97;;
33094;SDS011;19459;53.044;8.910;2023-02-13T17:22:51;75.63;;;37.60;;
33094;SDS011;19459;53.044;8.910;2023-02-13T17:28:11;80.75;;;38.35;;
33094;SDS011;19459;53.044;8.910;2023-02-13T17:30:40;76.68;;;36.65;;
33094;SDS011;19459;53.044;8.910;2023-02-13T17:33:20;76.78;;;37.78;;
33094;SDS011;19459;53.044;8.910;2023-02-13T17:35:49;72.00;;;34.67;;
33094;SDS011;19459;53.044;8.910;2023-02-13T17:38:15;71.00;;;33.50;;
33094;SDS011;19459;53.044;8.910;2023-02-13T17:40:42;73.68;;;37.22;;
33094;SDS011;19459;53.044;8.910;2023-02-13T17:43:10;72.68;;;35.13;;
33094;SDS011;19459;53.044;8.910;2023-02-13T17:45:37;77.03;;;37.42;;
33094;SDS011;19459;53.044;8.910;2023-02-13T17:48:04;77.25;;;36.95;;
33094;SDS011;19459;53.044;8.910;2023-02-13T17:50:30;70.07;;;34.35;;
33094;SDS011;19459;53.044;8.910;2023-02-13T17:53:00;75.32;;;35.47;;
33094;SDS011;19459;53.044;8.910;2023-02-13T17:55:29;71.13;;;34.92;;
33094;SDS011;19459;53.044;8.910;2023-02-13T17:57:57;74.22;;;36.92;;
33094;SDS011;19459;53.044;8.910;2023-02-13T18:00:27;107.22;;;58.05;;
33094;SDS011;19459;53.044;8.910;2023-02-13T18:02:56;106.40;;;54.47;;
33094;SDS011;19459;53.044;8.910;2023-02-13T18:05:28;99.90;;;53.45;;
33094;SDS011;19459;53.044;8.910;2023-02-13T18:07:56;105.40;;;57.47;;
33094;SDS011;19459;53.044;8.910;2023-02-13T18:10:23;116.47;;;60.88;;
33094;SDS011;19459;53.044;8.910;2023-02-13T18:12:54;100.00;;;50.22;;
33094;SDS011;19459;53.044;8.910;2023-02-13T18:17:55;88.20;;;44.72;;
33094;SDS011;19459;53.044;8.910;2023-02-13T18:20:20;99.20;;;46.30;;
33094;SDS011;19459;53.044;8.910;2023-02-13T18:22:47;85.60;;;42.95;;
33094;SDS011;19459;53.044;8.910;2023-02-13T18:25:14;93.07;;;41.92;;
33094;SDS011;19459;53.044;8.910;2023-02-13T18:27:42;90.63;;;41.95;;
33094;SDS011;19459;53.044;8.910;2023-02-13T18:30:09;80.53;;;38.35;;
33094;SDS011;19459;53.044;8.910;2023-02-13T18:32:39;84.90;;;40.38;;